Time;durP1;ratioP1;P1;durP2;ratioP2;P2;SDS_P1;SDS_P2;PMS_P1;PMS_P2;Temp;Humidity;BMP_temperature;BMP_pressure;BME280_temperature;BME280_humidity;BME280_pressure;Samples;Min_cycle;Max_cycle;Signal;HPM_P1;HPM_P2
2023/06/01 00:01:58;;;;;;;6.97;3.37;;;;;;;20.63;67.43;99031.75;6185716;23;20151;-87
2023/06/01 00:04:23;;;;;;;12.60;2.80;;;;;;;20.61;67.53;99041.72;6185349;23;20142;-87
2023/06/01 00:06:49;;;;;;;10.23;3.03;;;;;;;20.60;67.45;99045.38;6185338;23;20229;-87
2023/06/01 00:09:14;;;;;;;9.67;3.30;;;;;;;20.55;67.57;99040.50;6185648;23;20212;-87
2023/06/01 00:11:40;;;;;;;5.53;2.63;;;;;;;20.55;67.58;99042.31;6185294;23;20151;-87
2023/06/01 00:14:05;;;;;;;6.90;2.40;;;;;;;20.49;67.78;99048.22;6185348;23;20154;-87
2023/06/01 00:16:31;;;;;;;6.30;3.73;;;;;;;20.42;67.85;99042.63;6185361;23;20150;-87
2023/06/01 00:19:00;;;;;;;6.20;3.00;;;;;;;20.40;68.02;99049.09;6185587;23;20220;-87
2023/06/01 00:21:26;;;;;;;9.40;2.97;;;;;;;20.39;68.05;99050.09;6159290;23;20165;-87
2023/06/01 00:23:52;;;;;;;6.00;3.13;;;;;;;20.31;68.81;99047.31;6185967;23;20147;-87
2023/06/01 00:26:18;;;;;;;11.60;2.87;;;;;;;20.27;69.28;99048.56;6185629;23;20161;-87
2023/06/01 00:28:43;;;;;;;6.47;3.33;;;;;;;20.21;69.19;99050.78;6185278;23;20224;-87
2023/06/01 00:31:08;;;;;;;7.53;3.53;;;;;;;20.16;69.67;99047.72;6159298;23;20154;-87
2023/06/01 00:33:34;;;;;;;10.80;4.07;;;;;;;20.10;69.68;99048.28;6185262;23;20518;-87
2023/06/01 00:35:59;;;;;;;6.37;2.83;;;;;;;20.17;69.43;99065.38;6185238;23;20151;-87
2023/06/01 00:38:25;;;;;;;6.13;2.77;;;;;;;20.27;69.39;99054.72;6185114;23;20174;-87
2023/06/01 00:40:51;;;;;;;5.00;2.77;;;;;;;20.49;69.04;99059.69;6186080;23;20150;-87
2023/06/01 00:43:18;;;;;;;5.80;3.03;;;;;;;20.56;68.59;99050.16;6187477;23;20169;-87
2023/06/01 00:45:44;;;;;;;9.30;2.93;;;;;;;20.57;68.06;99056.34;6187481;23;20155;-87
2023/06/01 00:48:10;;;;;;;12.57;2.80;;;;;;;20.60;68.09;99056.03;6187053;23;20554;-87
2023/06/01 00:50:36;;;;;;;6.20;2.97;;;;;;;20.60;67.54;99056.88;6187118;23;20146;-87
2023/06/01 00:53:06;;;;;;;5.53;2.87;;;;;;;20.60;67.50;99048.88;6187094;23;20230;-87
2023/06/01 00:55:32;;;;;;;9.67;2.97;;;;;;;20.56;67.55;99047.50;6187065;23;20200;-87
2023/06/01 00:57:58;;;;;;;5.63;3.13;;;;;;;20.58;67.54;99058.84;6186895;23;20621;-87
2023/06/01 01:00:26;;;;;;;6.87;2.90;;;;;;;20.61;66.75;99055.06;6187313;23;20258;-87
2023/06/01 01:02:52;;;;;;;6.97;3.10;;;;;;;20.63;66.33;99051.25;6186941;23;20228;-87
2023/06/01 01:05:19;;;;;;;7.97;3.33;;;;;;;20.62;66.27;99056.75;6187262;23;20550;-87
2023/06/01 01:08:06;;;;;;;10.33;2.60;;;;;;;20.57;66.06;99057.16;6160889;23;20165;-87
2023/06/01 01:10:38;;;;;;;9.00;3.30;;;;;;;20.58;65.59;99052.66;6187307;23;20139;-87
2023/06/01 01:13:18;;;;;;;7.70;2.50;;;;;;;20.57;65.47;99059.81;6186891;23;20147;-87
2023/06/01 01:15:53;;;;;;;10.47;2.93;;;;;;;20.58;64.99;99052.66;6186880;23;20138;-87
2023/06/01 01:18:39;;;;;;;5.50;2.90;;;;;;;20.48;65.55;99054.53;6186898;23;20245;-87
2023/06/01 01:21:21;;;;;;;9.03;2.57;;;;;;;20.38;66.57;99056.38;6187093;23;20146;-87
2023/06/01 01:24:06;;;;;;;5.07;2.53;;;;;;;20.31;66.69;99050.78;6186791;23;20538;-87
2023/06/01 01:26:51;;;;;;;7.13;2.30;;;;;;;20.33;66.69;99056.81;6187111;23;20138;-87
2023/06/01 01:29:20;;;;;;;4.30;2.13;;;;;;;20.25;66.82;99063.84;6187137;23;20210;-87
2023/06/01 01:31:49;;;;;;;7.27;2.23;;;;;;;20.27;65.38;99054.72;6186663;23;20147;-87
2023/06/01 01:34:14;;;;;;;4.33;2.07;;;;;;;20.37;63.24;99058.19;6186639;23;20154;-87
2023/06/01 01:36:41;;;;;;;3.77;1.90;;;;;;;20.41;62.12;99056.94;6186641;23;20554;-87
2023/06/01 01:39:06;;;;;;;5.97;2.40;;;;;;;20.41;61.95;99056.09;6186514;23;20250;-87
2023/06/01 01:41:32;;;;;;;7.80;2.83;;;;;;;20.41;61.32;99051.63;6186607;23;20630;-86
2023/06/01 01:43:59;;;;;;;4.87;2.10;;;;;;;20.38;61.35;99057.22;6160579;23;20162;-86
2023/06/01 01:46:25;;;;;;;5.70;2.20;;;;;;;20.34;61.43;99054.97;6186523;23;20161;-87
2023/06/01 01:49:00;;;;;;;4.53;2.10;;;;;;;20.35;61.39;99062.84;6186864;23;20221;-87
2023/06/01 01:51:57;;;;;;;3.93;2.10;;;;;;;20.35;61.84;99052.19;6186971;23;20134;-87
2023/06/01 01:54:24;;;;;;;4.30;2.10;;;;;;;20.40;61.45;99059.75;6136303;23;20158;-86
2023/06/01 01:56:51;;;;;;;3.93;2.20;;;;;;;20.38;61.66;99057.22;6186834;23;20150;-86
2023/06/01 01:59:18;;;;;;;5.87;2.70;;;;;;;20.30;62.81;99064.25;6186374;23;20178;-87
2023/06/01 02:01:44;;;;;;;4.63;2.03;;;;;;;20.20;63.88;99067.72;6186435;23;20559;-87
2023/06/01 02:04:10;;;;;;;5.87;2.43;;;;;;;20.11;64.16;99065.09;6186401;23;20154;-87
2023/06/01 02:06:36;;;;;;;6.33;2.50;;;;;;;20.04;64.46;99074.63;6186350;23;20151;-87
2023/06/01 02:09:06;;;;;;;8.20;2.90;;;;;;;19.96;64.69;99072.69;6186338;23;20455;-87
2023/06/01 02:11:35;;;;;;;4.87;2.00;;;;;;;19.94;64.80;99077.28;6186642;23;20202;-87
2023/06/01 02:14:01;;;;;;;8.53;2.77;;;;;;;19.90;64.93;99078.56;6186605;23;20146;-87
2023/06/01 02:16:27;;;;;;;6.83;2.30;;;;;;;19.90;64.87;99081.22;6186312;23;20201;-87
2023/06/01 02:18:53;;;;;;;5.97;2.70;;;;;;;19.84;65.38;99078.25;6186067;23;20182;-87
2023/06/01 02:21:18;;;;;;;4.80;2.83;;;;;;;19.78;65.32;99073.53;6160248;23;20185;-87
2023/06/01 02:23:44;;;;;;;7.00;2.43;;;;;;;19.70;65.46;99070.72;6186269;23;20150;-87
2023/06/01 02:26:10;;;;;;;4.63;2.50;;;;;;;19.62;65.94;99068.75;6186177;23;20176;-87
2023/06/01 02:28:40;;;;;;;7.07;3.27;;;;;;;19.54;65.85;99082.75;6186157;23;20146;-87
2023/06/01 02:31:06;;;;;;;6.57;2.13;;;;;;;19.49;66.05;99076.16;6160041;23;20158;-87
2023/06/01 02:33:32;;;;;;;5.23;1.93;;;;;;;19.41;66.67;99083.97;6160077;23;20158;-87
2023/06/01 02:35:58;;;;;;;9.27;2.53;;;;;;;19.36;67.11;99083.53;6186096;23;20478;-87
2023/06/01 02:38:23;;;;;;;5.10;2.37;;;;;;;19.29;67.27;99072.56;6159991;23;20178;-87
2023/06/01 02:40:49;;;;;;;6.27;1.93;;;;;;;19.25;67.37;99078.31;6186033;23;20150;-86
2023/06/01 02:43:15;;;;;;;3.73;2.30;;;;;;;19.27;67.30;99079.00;6186021;23;20158;-87
2023/06/01 02:45:40;;;;;;;5.63;2.27;;;;;;;19.28;67.08;99080.69;6185973;23;20593;-87
2023/06/01 02:48:06;;;;;;;5.27;2.47;;;;;;;19.26;67.33;99082.66;6186335;23;20142;-87
2023/06/01 02:50:31;;;;;;;10.87;2.47;;;;;;;19.19;67.38;99082.34;6185978;23;20452;-86
2023/06/01 02:52:56;;;;;;;4.50;2.07;;;;;;;19.16;67.58;99082.63;6185942;23;20161;-86
2023/06/01 02:55:22;;;;;;;4.17;2.10;;;;;;;19.19;67.47;99086.81;6185911;23;20150;-86
2023/06/01 02:57:48;;;;;;;7.53;2.70;;;;;;;19.18;67.26;99080.66;6186106;23;20229;-86
2023/06/01 03:00:17;;;;;;;3.53;2.03;;;;;;;19.10;67.36;99085.00;6185826;23;20146;-86
2023/06/01 03:02:46;;;;;;;8.87;2.13;;;;;;;19.07;67.43;99082.59;6159578;23;20485;-87
2023/06/01 03:05:14;;;;;;;7.00;2.40;;;;;;;19.01;68.05;99082.16;6185718;23;20512;-87
2023/06/01 03:07:46;;;;;;;3.57;1.87;;;;;;;18.99;68.33;99086.78;6185751;23;20149;-87
2023/06/01 03:10:12;;;;;;;6.33;1.90;;;;;;;19.05;68.37;99081.91;6186145;23;20139;-87
2023/06/01 03:12:38;;;;;;;5.33;2.20;;;;;;;19.09;68.13;99081.50;6185710;23;20601;-87
2023/06/01 03:15:04;;;;;;;4.80;2.47;;;;;;;19.07;67.84;99082.59;6185715;23;20150;-87
2023/06/01 03:17:31;;;;;;;5.30;2.27;;;;;;;19.11;67.64;99084.84;6159786;23;20200;-87
2023/06/01 03:19:57;;;;;;;5.13;2.33;;;;;;;19.16;67.27;99084.44;6185261;23;20194;-87
2023/06/01 03:22:23;;;;;;;3.60;2.07;;;;;;;19.16;67.33;99082.63;6185690;23;20452;-87
2023/06/01 03:24:52;;;;;;;5.00;2.50;;;;;;;19.12;67.59;99096.31;6159641;23;20154;-87
2023/06/01 03:27:19;;;;;;;7.07;2.17;;;;;;;19.06;68.17;99092.38;6185576;23;20153;-87
2023/06/01 03:29:45;;;;;;;6.80;2.77;;;;;;;19.05;67.80;99090.69;6185578;23;20237;-86
2023/06/01 03:32:10;;;;;;;4.10;2.33;;;;;;;19.05;67.97;99100.50;6159642;23;20170;-86
2023/06/01 03:34:36;;;;;;;7.73;3.27;;;;;;;18.99;68.03;99093.91;6185559;23;20151;-86
2023/06/01 03:37:05;;;;;;;8.17;2.63;;;;;;;18.95;68.57;99101.28;6185530;23;20516;-86
2023/06/01 03:39:35;;;;;;;6.17;2.57;;;;;;;18.94;68.87;99093.47;6185763;23;20175;-87
2023/06/01 03:42:01;;;;;;;8.90;2.67;;;;;;;18.91;69.45;99099.88;6185558;23;20216;-87
2023/06/01 03:44:26;;;;;;;9.60;2.70;;;;;;;18.92;70.33;99092.72;6185457;23;20618;-87
2023/06/01 03:46:52;;;;;;;6.23;2.73;;;;;;;19.02;70.27;99097.09;6185465;23;20613;-87
2023/06/01 03:49:18;;;;;;;5.80;3.37;;;;;;;19.07;70.65;99098.53;6185834;23;20146;-87
2023/06/01 03:51:44;;;;;;;5.40;3.13;;;;;;;19.08;70.64;99103.72;6185815;23;20575;-87
2023/06/01 03:54:09;;;;;;;7.70;3.53;;;;;;;19.18;70.32;99104.56;6185743;23;20474;-87
2023/06/01 03:56:35;;;;;;;6.93;3.43;;;;;;;19.23;69.92;99110.34;6185736;23;20150;-87
2023/06/01 03:59:01;;;;;;;5.17;3.30;;;;;;;19.25;70.04;99110.19;6185631;23;20178;-87
2023/06/01 04:01:29;;;;;;;6.97;3.43;;;;;;;19.20;70.38;99112.44;6185362;23;20146;-87
2023/06/01 04:03:56;;;;;;;7.63;3.43;;;;;;;19.26;70.51;99114.56;6185323;23;20158;-87
2023/06/01 04:06:21;;;;;;;7.80;3.27;;;;;;;19.35;70.11;99108.41;6185431;23;20147;-87
2023/06/01 04:08:55;;;;;;;6.33;3.07;;;;;;;19.44;69.78;99110.28;6185343;23;20234;-87
2023/06/01 04:11:20;;;;;;;5.40;2.70;;;;;;;19.52;69.43;99107.78;6185724;23;20139;-87
2023/06/01 04:14:29;;;;;;;6.17;3.33;;;;;;;19.58;69.43;99105.41;6159726;23;20456;-87
2023/06/01 04:16:55;;;;;;;7.10;3.40;;;;;;;19.60;70.05;99105.28;6188068;23;20686;-87
2023/06/01 04:19:21;;;;;;;8.00;2.90;;;;;;;19.67;70.43;99105.56;6187092;23;20281;-87
2023/06/01 04:21:46;;;;;;;6.30;3.00;;;;;;;19.73;70.85;99102.34;6187405;23;20229;-87
2023/06/01 04:24:12;;;;;;;6.87;3.40;;;;;;;19.79;71.36;99110.59;6187386;23;20151;-87
2023/06/01 04:26:37;;;;;;;7.70;3.87;;;;;;;19.89;70.90;99107.97;6187301;23;20146;-87
2023/06/01 04:29:03;;;;;;;5.90;3.40;;;;;;;20.05;70.41;99113.53;6187299;23;20577;-87
2023/06/01 04:31:29;;;;;;;6.93;3.37;;;;;;;20.21;70.10;99111.16;6187315;23;20193;-87
2023/06/01 04:33:56;;;;;;;6.57;3.70;;;;;;;20.34;69.62;99108.22;6187168;23;20586;-88
2023/06/01 04:36:24;;;;;;;5.67;3.13;;;;;;;20.45;69.61;99111.56;6187547;23;20174;-87
2023/06/01 04:38:57;;;;;;;7.23;3.63;;;;;;;20.57;69.61;99118.41;6187469;23;20237;-87
2023/06/01 04:41:23;;;;;;;6.07;3.30;;;;;;;20.64;70.29;99116.88;6187661;23;20142;-87
2023/06/01 04:43:53;;;;;;;7.10;3.53;;;;;;;20.68;70.55;99112.06;6187169;23;20193;-87
2023/06/01 04:46:25;;;;;;;6.60;3.27;;;;;;;20.78;71.09;99118.19;6187114;23;20570;-87
2023/06/01 04:48:51;;;;;;;6.10;3.30;;;;;;;20.86;70.97;99115.66;6187456;23;20229;-87
2023/06/01 04:51:23;;;;;;;7.63;4.40;;;;;;;20.98;70.94;99119.84;6187423;23;20593;-87
2023/06/01 04:53:51;;;;;;;8.23;3.50;;;;;;;21.23;69.73;99119.19;6187117;23;20550;-86
2023/06/01 04:56:24;;;;;;;5.07;2.90;;;;;;;21.49;66.76;99119.31;6186997;23;20566;-87
2023/06/01 04:58:51;;;;;;;6.40;2.70;;;;;;;21.60;65.08;99115.59;6187005;23;20492;-87
2023/06/01 05:01:17;;;;;;;5.67;3.20;;;;;;;21.69;64.59;99120.88;6187357;23;20151;-88
2023/06/01 05:03:45;;;;;;;5.20;2.80;;;;;;;21.86;64.22;99116.56;6187039;23;20233;-87
2023/06/01 05:06:11;;;;;;;5.90;2.97;;;;;;;22.04;63.79;99123.59;6160984;23;20163;-87
2023/06/01 05:08:40;;;;;;;5.90;3.00;;;;;;;22.25;63.64;99120.59;6160946;23;20523;-87
2023/06/01 05:11:07;;;;;;;8.00;3.40;;;;;;;22.52;61.67;99125.81;6160855;23;20478;-87
2023/06/01 05:13:39;;;;;;;6.53;3.10;;;;;;;22.71;61.21;99123.97;6187250;23;20620;-87
2023/06/01 05:16:05;;;;;;;4.43;2.40;;;;;;;23.01;60.43;99126.13;6186885;23;20153;-87
2023/06/01 05:18:32;;;;;;;7.30;2.60;;;;;;;23.20;58.89;99125.91;6160657;23;20265;-87
2023/06/01 05:20:57;;;;;;;4.50;2.70;;;;;;;23.33;58.57;99126.28;6161882;23;20138;-87
2023/06/01 05:23:24;;;;;;;5.13;3.00;;;;;;;23.56;59.00;99127.41;6186836;23;20173;-87
2023/06/01 05:25:50;;;;;;;5.90;2.77;;;;;;;23.78;59.29;99124.13;6186407;23;20176;-88
2023/06/01 05:28:16;;;;;;;7.43;2.53;;;;;;;24.03;60.16;99124.97;6187464;23;20147;-87
2023/06/01 05:30:41;;;;;;;5.63;2.90;;;;;;;24.22;60.40;99123.84;6187092;23;20590;-88
2023/06/01 05:33:06;;;;;;;5.37;2.67;;;;;;;24.42;57.99;99142.09;6186737;23;20221;-87
2023/06/01 05:35:32;;;;;;;4.67;2.60;;;;;;;24.60;55.90;99138.41;6187017;23;20151;-85
2023/06/01 05:37:57;;;;;;;4.97;2.37;;;;;;;24.56;57.09;99132.53;6186484;23;20160;-88
2023/06/01 05:40:23;;;;;;;5.37;2.30;;;;;;;24.67;56.74;99134.88;6186671;23;20184;-88
2023/06/01 05:42:48;;;;;;;4.23;2.33;;;;;;;24.78;56.24;99134.56;6187309;23;20150;-88
2023/06/01 05:45:14;;;;;;;8.23;2.77;;;;;;;24.90;55.02;99135.88;6186639;23;20154;-88
2023/06/01 05:47:39;;;;;;;5.27;2.60;;;;;;;24.96;53.49;99139.72;6186563;23;20146;-88
2023/06/01 05:50:05;;;;;;;5.80;2.60;;;;;;;24.81;56.17;99131.56;6186563;23;20292;-87
2023/06/01 05:52:31;;;;;;;5.63;2.97;;;;;;;;;;6186549;23;20153;-87
2023/06/01 05:54:56;;;;;;;6.27;2.77;;;;;;;25.09;56.15;99131.13;6186489;23;20528;-87
2023/06/01 05:57:22;;;;;;;8.93;3.03;;;;;;;25.12;53.59;99130.78;6186493;23;20147;-87
2023/06/01 05:59:48;;;;;;;4.87;2.97;;;;;;;25.02;53.31;99137.19;6183289;23;20182;-88
2023/06/01 06:02:14;;;;;;;4.67;2.80;;;;;;;24.98;55.47;99129.66;6160255;23;20154;-87
2023/06/01 06:04:40;;;;;;;7.13;2.57;;;;;;;25.12;55.14;99136.16;6186407;23;20151;-87
2023/06/01 06:07:06;;;;;;;5.73;2.90;;;;;;;25.16;55.45;99140.19;6186422;23;20596;-87
2023/06/01 06:09:32;;;;;;;5.80;2.70;;;;;;;25.35;53.93;99137.06;6160157;23;20535;-87
2023/06/01 06:11:58;;;;;;;8.33;3.50;;;;;;;25.26;53.72;99130.06;6186205;23;20174;-87
2023/06/01 06:14:23;;;;;;;6.90;3.23;;;;;;;25.29;52.97;99143.16;6186189;23;20157;-87
2023/06/01 06:16:49;;;;;;;6.77;2.93;;;;;;;25.31;53.81;99144.66;6160065;23;20634;-87
2023/06/01 06:19:17;;;;;;;6.43;3.13;;;;;;;25.33;53.69;99144.47;6185861;23;20190;-88
2023/06/01 06:21:43;;;;;;;5.60;2.83;;;;;;;25.23;55.24;99149.19;6185825;23;20649;-87
2023/06/01 06:24:08;;;;;;;6.07;2.87;;;;;;;25.45;56.16;99143.91;6159983;23;20174;-87
2023/06/01 06:26:34;;;;;;;4.67;2.70;;;;;;;25.71;54.78;99138.25;6186142;23;20645;-88
2023/06/01 06:29:00;;;;;;;5.30;3.03;;;;;;;25.65;54.29;99147.84;6186103;23;20445;-88
2023/06/01 06:31:25;;;;;;;10.17;3.93;;;;;;;25.67;54.03;99145.00;6186240;23;20151;-88
2023/06/01 06:33:51;;;;;;;6.60;3.10;;;;;;;25.75;55.90;99146.81;6185880;23;20232;-88
2023/06/01 06:36:16;;;;;;;6.50;3.23;;;;;;;25.88;54.14;99136.31;6186084;23;20158;-88
2023/06/01 06:38:42;;;;;;;6.70;3.20;;;;;;;26.04;53.98;99138.91;6185446;23;20177;-88
2023/06/01 06:41:08;;;;;;;8.73;3.60;;;;;;;26.19;52.49;99137.97;6186040;23;20250;-88
2023/06/01 06:43:34;;;;;;;7.47;3.30;;;;;;;26.40;52.83;99134.59;6159855;23;20222;-88
2023/06/01 06:45:59;;;;;;;6.87;2.73;;;;;;;26.41;50.92;99143.50;6185432;23;20150;-88
2023/06/01 06:48:25;;;;;;;6.53;2.40;;;;;;;26.68;50.07;99130.31;6184778;23;20535;-88
2023/06/01 06:50:50;;;;;;;4.57;2.33;;;;;;;26.91;52.24;99138.38;6184040;23;20160;-88
2023/06/01 06:53:17;;;;;;;4.83;2.77;;;;;;;27.04;49.44;99140.41;6184072;23;20146;-88
2023/06/01 06:55:43;;;;;;;6.27;2.83;;;;;;;26.99;48.52;99138.25;6184190;23;20258;-89
2023/06/01 06:58:10;;;;;;;4.47;2.27;;;;;;;27.17;50.65;99133.38;6184312;23;20681;-88
2023/06/01 07:00:36;;;;;;;5.53;2.73;;;;;;;27.33;48.05;99133.16;6184712;23;20146;-89
2023/06/01 07:03:01;;;;;;;7.07;3.03;;;;;;;27.42;47.85;99129.38;6185022;23;20147;-88
2023/06/01 07:05:27;;;;;;;5.97;3.15;;;;;;;27.55;47.89;99134.09;6185724;23;20150;-89
2023/06/01 07:07:53;;;;;;;6.40;3.10;;;;;;;27.64;47.16;99130.28;6159541;23;20250;-88
2023/06/01 07:10:18;;;;;;;5.77;2.53;;;;;;;27.73;46.35;99131.81;6185757;23;20158;-88
2023/06/01 07:12:44;;;;;;;6.40;2.37;;;;;;;27.69;44.50;99129.69;6159722;23;20543;-88
2023/06/01 07:15:10;;;;;;;4.43;2.33;;;;;;;27.65;43.89;99133.78;6185725;23;20575;-88
2023/06/01 07:17:35;;;;;;;5.97;2.80;;;;;;;27.68;44.21;99130.69;6159492;23;20285;-88
2023/06/01 07:20:12;;;;;;;5.07;2.87;;;;;;;27.71;43.40;99133.03;6185435;23;20182;-89
2023/06/01 07:22:40;;;;;;;6.72;3.17;;;;;;;27.77;44.91;99130.41;6185674;23;20173;-89
2023/06/01 07:25:07;;;;;;;5.87;2.47;;;;;;;27.81;45.93;99130.84;6159617;23;20240;-89
2023/06/01 07:27:35;;;;;;;4.95;2.92;;;;;;;27.99;47.35;99121.31;6159777;23;20211;-88
2023/06/01 07:30:04;;;;;;;6.70;3.15;;;;;;;28.11;47.66;99124.38;6159607;23;20165;-89
2023/06/01 07:32:30;;;;;;;5.53;2.20;;;;;;;28.14;44.07;99120.47;6159499;23;20154;-88
2023/06/01 07:34:59;;;;;;;5.78;2.78;;;;;;;28.30;43.84;99129.09;6185362;23;20157;-89
2023/06/01 07:37:26;;;;;;;4.70;2.70;;;;;;;28.49;45.81;99133.00;6185344;23;20147;-89
2023/06/01 07:39:53;;;;;;;7.07;2.92;;;;;;;28.53;43.20;99129.75;6185006;23;20244;-89
2023/06/01 07:42:19;;;;;;;9.77;3.45;;;;;;;28.52;44.34;99127.22;6185374;23;20146;-89
2023/06/01 07:44:45;;;;;;;5.22;2.90;;;;;;;28.24;44.70;99127.19;6185713;23;20237;-89
2023/06/01 07:47:11;;;;;;;5.97;3.30;;;;;;;28.42;46.43;99124.88;6185345;23;20151;-89
2023/06/01 07:49:37;;;;;;;5.38;3.00;;;;;;;28.63;46.30;99118.63;6184881;23;20143;-89
2023/06/01 07:52:07;;;;;;;3.55;1.95;;;;;;;28.76;43.90;99129.53;6185190;23;20575;-89
2023/06/01 07:54:35;;;;;;;7.18;2.83;;;;;;;28.93;43.58;99130.06;6185682;23;20225;-88
2023/06/01 07:57:02;;;;;;;5.20;2.67;;;;;;;28.97;42.41;99125.94;6185246;23;20157;-89
2023/06/01 07:59:28;;;;;;;4.80;2.80;;;;;;;29.03;42.00;99126.00;6185137;23;20600;-89
2023/06/01 08:01:55;;;;;;;7.13;2.50;;;;;;;29.21;43.53;99129.03;6185066;23;20158;-89
2023/06/01 08:04:21;;;;;;;5.85;2.90;;;;;;;29.31;43.43;99122.41;6159219;23;20158;-89
2023/06/01 08:06:52;;;;;;;4.90;2.47;;;;;;;29.50;43.15;99119.81;6185357;23;20162;-89
2023/06/01 08:09:21;;;;;;;5.63;3.00;;;;;;;29.60;44.40;99112.16;6185217;23;20593;-89
2023/06/01 08:11:48;;;;;;;10.10;3.00;;;;;;;29.83;42.53;99106.44;6184807;23;20169;-89
2023/06/01 08:14:13;;;;;;;4.32;2.42;;;;;;;30.05;43.24;99101.69;6159165;23;20150;-90
2023/06/01 08:16:41;;;;;;;5.63;2.50;;;;;;;30.16;42.18;99115.44;6185061;23;20173;-90
2023/06/01 08:19:17;;;;;;;6.57;2.53;;;;;;;30.40;41.08;99109.44;6155260;23;20560;-89
2023/06/01 08:21:43;;;;;;;6.45;2.70;;;;;;;30.53;40.17;99114.03;6155062;23;20158;-89
2023/06/01 08:24:08;;;;;;;5.45;2.70;;;;;;;30.63;40.60;99111.75;6155687;23;20220;-89
2023/06/01 08:26:35;;;;;;;4.55;1.95;;;;;;;30.72;38.46;99112.34;6129594;23;20626;-89
2023/06/01 08:29:00;;;;;;;4.85;2.30;;;;;;;30.87;39.51;99112.97;6155394;23;20143;-89
2023/06/01 08:31:26;;;;;;;7.57;2.53;;;;;;;30.96;40.78;99111.72;6129573;23;20195;-89
2023/06/01 08:33:52;;;;;;;4.15;2.08;;;;;;;31.16;38.63;99104.38;6129313;23;20173;-89
2023/06/01 08:36:21;;;;;;;4.15;2.15;;;;;;;31.28;37.60;99108.09;6154132;23;20476;-89
2023/06/01 08:38:46;;;;;;;9.90;2.20;;;;;;;31.42;36.91;99103.47;6155216;23;20233;-90
2023/06/01 08:41:33;;;;;;;10.73;2.83;;;;;;;31.44;38.69;99095.94;6155355;23;20147;-89
2023/06/01 08:44:02;;;;;;;4.57;1.70;;;;;;;31.54;36.88;99096.34;6155671;23;20162;-89
2023/06/01 08:46:41;;;;;;;3.47;1.80;;;;;;;31.60;35.10;99095.50;6155377;23;20147;-89
2023/06/01 08:49:07;;;;;;;5.22;1.52;;;;;;;31.68;36.42;99094.41;6155391;23;20135;-90
2023/06/01 08:51:37;;;;;;;3.50;1.70;;;;;;;31.68;35.03;99087.13;6155342;23;20187;-89
2023/06/01 08:54:07;;;;;;;3.88;1.80;;;;;;;31.79;35.19;99082.88;6155245;23;20575;-89
2023/06/01 08:56:32;;;;;;;3.03;1.52;;;;;;;31.93;32.71;99090.72;6155874;23;20222;-89
2023/06/01 08:59:00;;;;;;;4.93;1.95;;;;;;;32.05;34.20;99082.75;6155223;23;20222;-89
2023/06/01 09:01:27;;;;;;;2.67;1.48;;;;;;;31.98;33.55;99079.19;6129972;23;20159;-89
2023/06/01 09:03:53;;;;;;;3.83;1.80;;;;;;;31.88;35.48;99087.00;6156895;23;20545;-90
2023/06/01 09:06:18;;;;;;;6.40;2.30;;;;;;;32.08;33.67;99080.41;6157111;23;20152;-90
2023/06/01 09:08:45;;;;;;;5.30;1.95;;;;;;;32.24;34.22;99076.31;6157109;23;20563;-88
2023/06/01 09:11:11;;;;;;;6.60;1.77;;;;;;;32.29;33.57;99081.91;6157170;23;20154;-89
2023/06/01 09:13:38;;;;;;;3.97;1.98;;;;;;;32.16;33.95;99074.72;6157060;23;20260;-88
2023/06/01 09:16:04;;;;;;;4.32;1.83;;;;;;;32.18;32.26;99075.31;6131183;23;20163;-88
2023/06/01 09:18:30;;;;;;;4.78;1.70;;;;;;;32.35;31.00;99081.03;6131789;23;20186;-89
2023/06/01 09:21:16;;;;;;;6.30;2.70;;;;;;;32.31;32.53;99084.44;6131351;23;20472;-89
2023/06/01 09:23:42;;;;;;;3.33;1.92;;;;;;;32.30;31.62;99075.44;6156079;23;20155;-88
2023/06/01 09:26:14;;;;;;;7.57;2.08;;;;;;;32.08;32.89;99069.56;6156843;23;20147;-89
2023/06/01 09:28:56;;;;;;;3.97;1.73;;;;;;;32.28;31.73;99066.72;6156874;23;20155;-90
2023/06/01 09:31:42;;;;;;;4.45;1.92;;;;;;;32.08;33.97;99066.00;6156840;23;20282;-88
2023/06/01 09:34:15;;;;;;;6.32;2.03;;;;;;;32.11;33.11;99061.00;6156684;23;20160;-89
2023/06/01 09:36:41;;;;;;;3.67;1.83;;;;;;;32.27;32.93;99072.34;6157123;23;20135;-89
2023/06/01 09:39:12;;;;;;;6.35;1.98;;;;;;;32.25;29.61;99066.31;6156688;23;20175;-89
2023/06/01 09:41:54;;;;;;;5.28;2.05;;;;;;;32.41;29.78;99066.59;6130994;23;20218;-89
2023/06/01 09:44:30;;;;;;;4.70;2.00;;;;;;;32.66;28.44;99069.31;6156666;23;20159;-89
2023/06/01 09:47:14;;;;;;;6.43;1.95;;;;;;;32.87;30.16;99060.72;6131012;23;20157;-89
2023/06/01 09:49:43;;;;;;;3.17;1.63;;;;;;;33.15;31.37;99060.25;6131080;23;20451;-89
2023/06/01 09:52:17;;;;;;;5.15;2.13;;;;;;;33.32;30.31;99048.53;6131008;23;20242;-89
2023/06/01 09:54:49;;;;;;;3.78;1.58;;;;;;;33.17;29.77;99063.56;6156959;23;20174;-88
2023/06/01 09:57:28;;;;;;;3.22;1.65;;;;;;;32.76;27.28;99064.19;6156587;23;20151;-89
2023/06/01 09:59:54;;;;;;;3.20;1.33;;;;;;;32.72;26.79;99052.97;6156428;23;20170;-89
2023/06/01 10:02:22;;;;;;;4.65;1.90;;;;;;;32.53;28.21;99053.13;6156840;23;20213;-89
2023/06/01 10:04:57;;;;;;;3.70;1.98;;;;;;;32.73;27.86;99049.16;6156558;23;20147;-89
2023/06/01 10:07:25;;;;;;;3.30;1.63;;;;;;;32.90;29.14;99043.16;6156706;23;20153;-89
2023/06/01 10:09:54;;;;;;;5.05;1.95;;;;;;;32.65;27.89;99046.75;6156409;23;20144;-88
2023/06/01 10:12:20;;;;;;;5.75;1.58;;;;;;;32.45;28.93;99045.25;6156629;23;20161;-88
2023/06/01 10:14:46;;;;;;;8.38;1.90;;;;;;;32.58;28.34;99045.16;6156736;23;20175;-88
2023/06/01 10:17:14;;;;;;;4.07;2.03;;;;;;;32.65;29.61;99040.50;6156534;23;20151;-89
2023/06/01 10:19:41;;;;;;;3.72;1.73;;;;;;;32.41;27.05;99042.16;6156068;23;20195;-88
2023/06/01 10:22:06;;;;;;;3.05;1.55;;;;;;;32.47;26.86;99037.75;6130523;23;20159;-88
2023/06/01 10:24:33;;;;;;;3.20;1.90;;;;;;;32.70;28.24;99033.34;6130591;23;20158;-88
2023/06/01 10:27:02;;;;;;;5.00;1.90;;;;;;;32.94;29.02;99033.50;6156715;23;20214;-89
2023/06/01 10:29:32;;;;;;;6.32;1.95;;;;;;;32.92;25.21;99033.72;6152494;23;20213;-88
2023/06/01 10:31:57;;;;;;;4.15;1.95;;;;;;;32.51;26.51;99033.50;6154963;23;20310;-89
2023/06/01 10:34:42;;;;;;;3.45;2.00;;;;;;;32.45;28.52;99028.97;6155481;23;20626;-88
2023/06/01 10:37:08;;;;;;;3.55;1.60;;;;;;;32.54;30.37;99030.38;6155374;23;20178;-89
2023/06/01 10:39:34;;;;;;;3.67;1.77;;;;;;;32.66;27.89;99028.59;6155309;23;20175;-89
2023/06/01 10:42:23;;;;;;;4.95;2.20;;;;;;;33.19;27.47;99016.09;6155417;23;20147;-89
2023/06/01 10:44:48;;;;;;;7.03;2.00;;;;;;;33.30;27.46;99007.19;6136595;23;20155;-89
2023/06/01 10:47:40;;;;;;;4.68;2.10;;;;;;;33.37;30.03;99010.63;6156241;23;20147;-89
2023/06/01 10:50:05;;;;;;;5.15;2.00;;;;;;;32.13;29.00;99015.47;6156048;23;20155;-88
2023/06/01 10:52:35;;;;;;;6.15;1.48;;;;;;;32.44;30.30;99011.03;6156584;23;20161;-89
2023/06/01 10:55:07;;;;;;;3.70;1.83;;;;;;;32.70;30.89;99010.81;6157311;23;20211;-89
2023/06/01 10:57:40;;;;;;;3.97;1.85;;;;;;;32.74;30.71;99009.28;6156184;23;20151;-88
2023/06/01 11:00:15;;;;;;;4.15;1.92;;;;;;;32.36;30.07;99016.75;6156342;23;20697;-88
2023/06/01 11:02:49;;;;;;;5.38;1.67;;;;;;;32.55;28.44;99008.44;6156156;23;20222;-88
2023/06/01 11:05:40;;;;;;;3.65;1.88;;;;;;;32.64;28.48;99003.56;6156840;23;20131;-89
2023/06/01 11:08:07;;;;;;;2.83;1.58;;;;;;;32.53;28.15;99009.72;6156369;23;20143;-89
2023/06/01 11:10:52;;;;;;;4.28;1.80;;;;;;;32.48;28.55;98999.50;6156030;23;20197;-88
2023/06/01 11:13:19;;;;;;;4.53;2.00;;;;;;;32.62;29.96;98992.09;6156366;23;20152;-89
2023/06/01 11:16:11;;;;;;;4.88;1.70;;;;;;;32.92;31.35;98990.28;6130299;23;20155;-89
2023/06/01 11:18:41;;;;;;;4.05;1.70;;;;;;;33.15;30.09;98987.72;6129868;23;20650;-89
2023/06/01 11:21:08;;;;;;;3.47;1.65;;;;;;;33.03;29.31;98986.81;6156642;23;20142;-89
2023/06/01 11:23:34;;;;;;;4.32;2.17;;;;;;;33.10;28.36;98982.13;6130420;23;20159;-90
2023/06/01 11:26:06;;;;;;;4.85;1.85;;;;;;;33.12;29.49;98973.78;6130035;23;20575;-89
2023/06/01 11:28:32;;;;;;;3.42;1.83;;;;;;;33.12;29.30;98971.91;6130187;23;20143;-89
2023/06/01 11:31:02;;;;;;;4.05;1.80;;;;;;;33.13;29.47;98965.38;6156172;23;20551;-89
2023/06/01 11:33:28;;;;;;;4.00;1.90;;;;;;;33.33;29.71;98967.84;6130078;23;20171;-89
2023/06/01 11:36:01;;;;;;;4.90;1.90;;;;;;;33.47;29.54;98958.41;6155819;23;20151;-89
2023/06/01 11:38:40;;;;;;;5.13;2.10;;;;;;;33.60;30.20;98958.25;6129935;23;20182;-89
2023/06/01 11:41:06;;;;;;;5.05;2.20;;;;;;;33.80;28.17;98952.50;6130111;23;20154;-89